sensor_id;sensor_type;location;lat;lon;timestamp;P1;durP1;ratioP1;P2;durP2;ratioP2
11962;SDS011;62678;52.130;5.584;2023-02-26T00:01:15;9.68;;;2.90;;
11962;SDS011;62678;52.130;5.584;2023-02-26T00:03:47;8.63;;;2.80;;
11962;SDS011;62678;52.130;5.584;2023-02-26T00:06:14;12.88;;;3.13;;
11962;SDS011;62678;52.130;5.584;2023-02-26T00:08:40;8.15;;;3.10;;
11962;SDS011;62678;52.130;5.584;2023-02-26T00:11:07;8.63;;;2.72;;
11962;SDS011;62678;52.130;5.584;2023-02-26T00:13:36;10.20;;;3.33;;
11962;SDS011;62678;52.130;5.584;2023-02-26T00:16:05;5.47;;;2.45;;
11962;SDS011;62678;52.130;5.584;2023-02-26T00:18:39;7.85;;;2.70;;
11962;SDS011;62678;52.130;5.584;2023-02-26T00:21:08;9.27;;;2.55;;
11962;SDS011;62678;52.130;5.584;2023-02-26T00:23:41;5.28;;;2.60;;
11962;SDS011;62678;52.130;5.584;2023-02-26T00:26:08;5.65;;;2.22;;
11962;SDS011;62678;52.130;5.584;2023-02-26T00:28:35;5.85;;;2.50;;
11962;SDS011;62678;52.130;5.584;2023-02-26T00:31:03;6.93;;;1.92;;
11962;SDS011;62678;52.130;5.584;2023-02-26T00:33:30;10.25;;;1.70;;
11962;SDS011;62678;52.130;5.584;2023-02-26T00:35:59;8.07;;;1.70;;
11962;SDS011;62678;52.130;5.584;2023-02-26T00:38:31;6.05;;;1.80;;
11962;SDS011;62678;52.130;5.584;2023-02-26T00:41:01;8.05;;;1.38;;
11962;SDS011;62678;52.130;5.584;2023-02-26T00:43:28;6.88;;;1.70;;
11962;SDS011;62678;52.130;5.584;2023-02-26T00:45:57;10.10;;;2.00;;
11962;SDS011;62678;52.130;5.584;2023-02-26T00:48:38;7.25;;;1.35;;
11962;SDS011;62678;52.130;5.584;2023-02-26T00:51:14;5.60;;;1.17;;
11962;SDS011;62678;52.130;5.584;2023-02-26T00:53:51;3.78;;;0.90;;
11962;SDS011;62678;52.130;5.584;2023-02-26T00:56:24;6.57;;;1.40;;
11962;SDS011;62678;52.130;5.584;2023-02-26T00:58:51;6.20;;;1.35;;
11962;SDS011;62678;52.130;5.584;2023-02-26T01:01:18;6.32;;;1.17;;
11962;SDS011;62678;52.130;5.584;2023-02-26T01:03:45;6.15;;;1.25;;
11962;SDS011;62678;52.130;5.584;2023-02-26T01:06:12;6.63;;;1.35;;
11962;SDS011;62678;52.130;5.584;2023-02-26T01:08:45;4.28;;;1.30;;
11962;SDS011;62678;52.130;5.584;2023-02-26T01:11:19;5.68;;;1.30;;
11962;SDS011;62678;52.130;5.584;2023-02-26T01:13:47;11.68;;;2.17;;
11962;SDS011;62678;52.130;5.584;2023-02-26T01:16:15;7.28;;;1.38;;
11962;SDS011;62678;52.130;5.584;2023-02-26T01:18:47;5.88;;;1.40;;
11962;SDS011;62678;52.130;5.584;2023-02-26T01:21:19;6.32;;;1.40;;
11962;SDS011;62678;52.130;5.584;2023-02-26T01:23:52;6.70;;;1.60;;
11962;SDS011;62678;52.130;5.584;2023-02-26T01:26:21;7.97;;;1.70;;
11962;SDS011;62678;52.130;5.584;2023-02-26T01:28:50;5.15;;;1.60;;
11962;SDS011;62678;52.130;5.584;2023-02-26T01:31:21;5.05;;;1.20;;
11962;SDS011;62678;52.130;5.584;2023-02-26T01:33:58;4.35;;;1.23;;
11962;SDS011;62678;52.130;5.584;2023-02-26T01:36:32;7.45;;;1.70;;
11962;SDS011;62678;52.130;5.584;2023-02-26T01:39:07;8.80;;;1.58;;
11962;SDS011;62678;52.130;5.584;2023-02-26T01:41:44;5.82;;;1.67;;
11962;SDS011;62678;52.130;5.584;2023-02-26T01:44:16;11.65;;;1.35;;
11962;SDS011;62678;52.130;5.584;2023-02-26T01:49:41;4.18;;;1.38;;
11962;SDS011;62678;52.130;5.584;2023-02-26T01:55:20;6.72;;;1.55;;
11962;SDS011;62678;52.130;5.584;2023-02-26T01:57:50;6.90;;;1.48;;
11962;SDS011;62678;52.130;5.584;2023-02-26T02:00:20;8.18;;;1.50;;
11962;SDS011;62678;52.130;5.584;2023-02-26T02:02:48;4.22;;;0.93;;
11962;SDS011;62678;52.130;5.584;2023-02-26T02:05:15;8.48;;;1.30;;
11962;SDS011;62678;52.130;5.584;2023-02-26T02:07:49;8.80;;;1.50;;
11962;SDS011;62678;52.130;5.584;2023-02-26T02:10:17;5.32;;;1.50;;
11962;SDS011;62678;52.130;5.584;2023-02-26T02:12:46;6.07;;;1.60;;
11962;SDS011;62678;52.130;5.584;2023-02-26T02:15:24;5.60;;;1.30;;
11962;SDS011;62678;52.130;5.584;2023-02-26T02:18:00;8.55;;;1.45;;
11962;SDS011;62678;52.130;5.584;2023-02-26T02:20:42;5.13;;;1.17;;
11962;SDS011;62678;52.130;5.584;2023-02-26T02:23:24;6.78;;;1.13;;
11962;SDS011;62678;52.130;5.584;2023-02-26T02:26:08;2.72;;;1.17;;
11962;SDS011;62678;52.130;5.584;2023-02-26T02:29:24;5.05;;;1.30;;
11962;SDS011;62678;52.130;5.584;2023-02-26T02:32:07;4.88;;;1.02;;
11962;SDS011;62678;52.130;5.584;2023-02-26T02:34:36;8.45;;;1.42;;
11962;SDS011;62678;52.130;5.584;2023-02-26T02:37:12;9.98;;;1.33;;
11962;SDS011;62678;52.130;5.584;2023-02-26T02:39:44;6.63;;;1.15;;
11962;SDS011;62678;52.130;5.584;2023-02-26T02:42:19;5.75;;;1.23;;
11962;SDS011;62678;52.130;5.584;2023-02-26T02:44:51;5.68;;;1.20;;
11962;SDS011;62678;52.130;5.584;2023-02-26T02:47:27;8.15;;;1.20;;
11962;SDS011;62678;52.130;5.584;2023-02-26T02:49:58;4.63;;;1.20;;
11962;SDS011;62678;52.130;5.584;2023-02-26T02:52:32;11.35;;;1.67;;
11962;SDS011;62678;52.130;5.584;2023-02-26T02:55:04;6.57;;;1.20;;
11962;SDS011;62678;52.130;5.584;2023-02-26T02:57:35;4.90;;;1.17;;
11962;SDS011;62678;52.130;5.584;2023-02-26T03:00:06;7.43;;;1.30;;
11962;SDS011;62678;52.130;5.584;2023-02-26T03:02:38;5.68;;;0.93;;
11962;SDS011;62678;52.130;5.584;2023-02-26T03:05:11;5.25;;;1.10;;
11962;SDS011;62678;52.130;5.584;2023-02-26T03:07:40;6.88;;;1.10;;
11962;SDS011;62678;52.130;5.584;2023-02-26T03:10:11;5.18;;;1.15;;
11962;SDS011;62678;52.130;5.584;2023-02-26T03:12:38;4.13;;;0.90;;
11962;SDS011;62678;52.130;5.584;2023-02-26T03:15:05;6.80;;;1.05;;
11962;SDS011;62678;52.130;5.584;2023-02-26T03:17:35;5.45;;;1.20;;
11962;SDS011;62678;52.130;5.584;2023-02-26T03:20:14;3.85;;;0.82;;
11962;SDS011;62678;52.130;5.584;2023-02-26T03:22:49;3.42;;;1.20;;
11962;SDS011;62678;52.130;5.584;2023-02-26T03:25:23;5.97;;;1.13;;
11962;SDS011;62678;52.130;5.584;2023-02-26T03:27:56;4.90;;;0.85;;
11962;SDS011;62678;52.130;5.584;2023-02-26T03:30:31;8.80;;;1.17;;
11962;SDS011;62678;52.130;5.584;2023-02-26T03:33:07;4.70;;;1.08;;
11962;SDS011;62678;52.130;5.584;2023-02-26T03:35:42;5.50;;;0.90;;
11962;SDS011;62678;52.130;5.584;2023-02-26T03:38:15;6.22;;;1.02;;
11962;SDS011;62678;52.130;5.584;2023-02-26T03:40:51;4.47;;;0.85;;
11962;SDS011;62678;52.130;5.584;2023-02-26T03:43:23;3.85;;;1.13;;
11962;SDS011;62678;52.130;5.584;2023-02-26T03:45:55;4.78;;;0.90;;
11962;SDS011;62678;52.130;5.584;2023-02-26T03:48:28;3.22;;;0.95;;
11962;SDS011;62678;52.130;5.584;2023-02-26T03:50:59;2.75;;;0.90;;
11962;SDS011;62678;52.130;5.584;2023-02-26T03:53:29;7.70;;;1.20;;
11962;SDS011;62678;52.130;5.584;2023-02-26T03:56:00;4.93;;;0.90;;
11962;SDS011;62678;52.130;5.584;2023-02-26T03:58:30;4.13;;;1.10;;
11962;SDS011;62678;52.130;5.584;2023-02-26T04:00:58;6.28;;;1.10;;
11962;SDS011;62678;52.130;5.584;2023-02-26T04:03:31;5.82;;;1.20;;
11962;SDS011;62678;52.130;5.584;2023-02-26T04:06:01;3.70;;;0.90;;
11962;SDS011;62678;52.130;5.584;2023-02-26T04:08:29;5.65;;;0.95;;
11962;SDS011;62678;52.130;5.584;2023-02-26T04:10:57;3.33;;;1.10;;
11962;SDS011;62678;52.130;5.584;2023-02-26T04:13:28;2.40;;;0.80;;
11962;SDS011;62678;52.130;5.584;2023-02-26T04:15:55;6.00;;;1.10;;
11962;SDS011;62678;52.130;5.584;2023-02-26T04:18:22;7.53;;;1.30;;
11962;SDS011;62678;52.130;5.584;2023-02-26T04:20:50;6.18;;;1.30;;
11962;SDS011;62678;52.130;5.584;2023-02-26T04:23:17;4.57;;;1.10;;
11962;SDS011;62678;52.130;5.584;2023-02-26T04:25:44;4.30;;;0.80;;
11962;SDS011;62678;52.130;5.584;2023-02-26T04:28:11;3.45;;;0.98;;
11962;SDS011;62678;52.130;5.584;2023-02-26T04:30:38;5.95;;;0.88;;
11962;SDS011;62678;52.130;5.584;2023-02-26T04:33:05;2.38;;;0.85;;
11962;SDS011;62678;52.130;5.584;2023-02-26T04:35:32;4.38;;;0.75;;
11962;SDS011;62678;52.130;5.584;2023-02-26T04:38:00;5.28;;;0.70;;
11962;SDS011;62678;52.130;5.584;2023-02-26T04:40:27;8.55;;;1.05;;
11962;SDS011;62678;52.130;5.584;2023-02-26T04:42:54;5.15;;;0.88;;
11962;SDS011;62678;52.130;5.584;2023-02-26T04:45:20;5.47;;;1.20;;
11962;SDS011;62678;52.130;5.584;2023-02-26T04:47:47;7.53;;;1.00;;
11962;SDS011;62678;52.130;5.584;2023-02-26T04:50:14;6.85;;;1.02;;
11962;SDS011;62678;52.130;5.584;2023-02-26T04:52:41;6.80;;;1.08;;
11962;SDS011;62678;52.130;5.584;2023-02-26T04:55:09;4.60;;;0.98;;
11962;SDS011;62678;52.130;5.584;2023-02-26T04:57:36;4.75;;;1.30;;
11962;SDS011;62678;52.130;5.584;2023-02-26T05:00:03;3.53;;;1.23;;
11962;SDS011;62678;52.130;5.584;2023-02-26T05:02:32;3.53;;;0.98;;
11962;SDS011;62678;52.130;5.584;2023-02-26T05:04:59;5.15;;;1.10;;
11962;SDS011;62678;52.130;5.584;2023-02-26T05:07:25;6.45;;;1.10;;
11962;SDS011;62678;52.130;5.584;2023-02-26T05:09:52;6.53;;;1.27;;
11962;SDS011;62678;52.130;5.584;2023-02-26T05:12:20;5.28;;;0.90;;
11962;SDS011;62678;52.130;5.584;2023-02-26T05:14:47;5.03;;;1.27;;
11962;SDS011;62678;52.130;5.584;2023-02-26T05:17:14;4.00;;;0.90;;
11962;SDS011;62678;52.130;5.584;2023-02-26T05:19:41;5.30;;;1.13;;
11962;SDS011;62678;52.130;5.584;2023-02-26T05:22:08;7.40;;;1.10;;
11962;SDS011;62678;52.130;5.584;2023-02-26T05:24:34;4.50;;;1.20;;
11962;SDS011;62678;52.130;5.584;2023-02-26T05:27:01;5.80;;;1.00;;
11962;SDS011;62678;52.130;5.584;2023-02-26T05:29:29;4.82;;;0.80;;
11962;SDS011;62678;52.130;5.584;2023-02-26T05:31:57;6.25;;;0.90;;
11962;SDS011;62678;52.130;5.584;2023-02-26T05:34:24;4.13;;;0.75;;
11962;SDS011;62678;52.130;5.584;2023-02-26T05:36:50;4.20;;;0.80;;
11962;SDS011;62678;52.130;5.584;2023-02-26T05:39:17;5.82;;;1.00;;
11962;SDS011;62678;52.130;5.584;2023-02-26T05:41:44;3.83;;;1.08;;
11962;SDS011;62678;52.130;5.584;2023-02-26T05:44:12;5.18;;;1.17;;
11962;SDS011;62678;52.130;5.584;2023-02-26T05:46:40;3.40;;;0.77;;
11962;SDS011;62678;52.130;5.584;2023-02-26T05:49:07;6.72;;;1.08;;
11962;SDS011;62678;52.130;5.584;2023-02-26T05:51:34;4.03;;;0.95;;
11962;SDS011;62678;52.130;5.584;2023-02-26T05:54:01;5.82;;;0.73;;
11962;SDS011;62678;52.130;5.584;2023-02-26T05:56:27;5.13;;;1.13;;
11962;SDS011;62678;52.130;5.584;2023-02-26T05:58:56;2.40;;;0.90;;
11962;SDS011;62678;52.130;5.584;2023-02-26T06:01:23;4.90;;;1.10;;
11962;SDS011;62678;52.130;5.584;2023-02-26T06:03:51;4.18;;;1.13;;
11962;SDS011;62678;52.130;5.584;2023-02-26T06:06:18;4.63;;;1.15;;
11962;SDS011;62678;52.130;5.584;2023-02-26T06:08:46;5.68;;;1.00;;
11962;SDS011;62678;52.130;5.584;2023-02-26T06:11:13;7.55;;;1.23;;
11962;SDS011;62678;52.130;5.584;2023-02-26T06:13:40;4.75;;;1.10;;
11962;SDS011;62678;52.130;5.584;2023-02-26T06:16:07;3.00;;;0.77;;
11962;SDS011;62678;52.130;5.584;2023-02-26T06:18:33;3.03;;;0.77;;
11962;SDS011;62678;52.130;5.584;2023-02-26T06:21:02;3.60;;;1.05;;
11962;SDS011;62678;52.130;5.584;2023-02-26T06:23:29;6.35;;;0.90;;
11962;SDS011;62678;52.130;5.584;2023-02-26T06:25:56;3.95;;;1.23;;
11962;SDS011;62678;52.130;5.584;2023-02-26T06:28:23;6.47;;;1.10;;
11962;SDS011;62678;52.130;5.584;2023-02-26T06:30:50;3.22;;;1.08;;
11962;SDS011;62678;52.130;5.584;2023-02-26T06:33:18;2.83;;;0.70;;
11962;SDS011;62678;52.130;5.584;2023-02-26T06:35:45;5.45;;;1.15;;
11962;SDS011;62678;52.130;5.584;2023-02-26T06:38:13;5.32;;;0.85;;
11962;SDS011;62678;52.130;5.584;2023-02-26T06:40:40;12.52;;;1.40;;
11962;SDS011;62678;52.130;5.584;2023-02-26T06:43:07;4.72;;;1.10;;
11962;SDS011;62678;52.130;5.584;2023-02-26T06:45:34;5.43;;;0.70;;
11962;SDS011;62678;52.130;5.584;2023-02-26T06:48:01;6.28;;;0.90;;
11962;SDS011;62678;52.130;5.584;2023-02-26T06:50:28;4.20;;;1.20;;
11962;SDS011;62678;52.130;5.584;2023-02-26T06:52:55;8.82;;;1.10;;
11962;SDS011;62678;52.130;5.584;2023-02-26T06:55:23;7.13;;;1.00;;
11962;SDS011;62678;52.130;5.584;2023-02-26T06:57:51;5.15;;;1.02;;
11962;SDS011;62678;52.130;5.584;2023-02-26T07:00:18;5.32;;;1.00;;
11962;SDS011;62678;52.130;5.584;2023-02-26T07:02:45;5.38;;;1.33;;
11962;SDS011;62678;52.130;5.584;2023-02-26T07:05:12;4.50;;;1.05;;
11962;SDS011;62678;52.130;5.584;2023-02-26T07:07:39;5.30;;;1.10;;
11962;SDS011;62678;52.130;5.584;2023-02-26T07:10:07;6.35;;;1.02;;
11962;SDS011;62678;52.130;5.584;2023-02-26T07:12:37;4.60;;;0.85;;
11962;SDS011;62678;52.130;5.584;2023-02-26T07:15:04;2.60;;;0.82;;
11962;SDS011;62678;52.130;5.584;2023-02-26T07:17:32;6.05;;;1.00;;
11962;SDS011;62678;52.130;5.584;2023-02-26T07:19:59;6.13;;;1.38;;
11962;SDS011;62678;52.130;5.584;2023-02-26T07:22:30;6.18;;;1.17;;
11962;SDS011;62678;52.130;5.584;2023-02-26T07:24:57;9.38;;;1.48;;
11962;SDS011;62678;52.130;5.584;2023-02-26T07:27:25;3.50;;;0.80;;
11962;SDS011;62678;52.130;5.584;2023-02-26T07:29:55;4.47;;;0.98;;
11962;SDS011;62678;52.130;5.584;2023-02-26T07:32:22;5.90;;;0.82;;
11962;SDS011;62678;52.130;5.584;2023-02-26T07:34:49;2.60;;;1.08;;
11962;SDS011;62678;52.130;5.584;2023-02-26T07:37:16;7.18;;;1.10;;
11962;SDS011;62678;52.130;5.584;2023-02-26T07:39:43;3.25;;;0.98;;
11962;SDS011;62678;52.130;5.584;2023-02-26T07:42:10;4.45;;;0.95;;
11962;SDS011;62678;52.130;5.584;2023-02-26T07:44:37;3.20;;;0.98;;
11962;SDS011;62678;52.130;5.584;2023-02-26T07:47:06;8.68;;;1.33;;
11962;SDS011;62678;52.130;5.584;2023-02-26T07:49:33;2.17;;;0.93;;
11962;SDS011;62678;52.130;5.584;2023-02-26T07:51:59;3.63;;;1.30;;
11962;SDS011;62678;52.130;5.584;2023-02-26T07:54:27;5.05;;;1.02;;
11962;SDS011;62678;52.130;5.584;2023-02-26T07:56:54;4.32;;;1.20;;
11962;SDS011;62678;52.130;5.584;2023-02-26T07:59:21;2.55;;;0.70;;
11962;SDS011;62678;52.130;5.584;2023-02-26T08:01:48;4.68;;;0.90;;
11962;SDS011;62678;52.130;5.584;2023-02-26T08:04:17;5.38;;;0.95;;
11962;SDS011;62678;52.130;5.584;2023-02-26T08:06:44;3.97;;;1.38;;
11962;SDS011;62678;52.130;5.584;2023-02-26T08:09:11;4.75;;;1.40;;
11962;SDS011;62678;52.130;5.584;2023-02-26T08:11:38;8.52;;;0.90;;
11962;SDS011;62678;52.130;5.584;2023-02-26T08:14:07;6.20;;;1.20;;
11962;SDS011;62678;52.130;5.584;2023-02-26T08:16:34;6.35;;;0.98;;
11962;SDS011;62678;52.130;5.584;2023-02-26T08:19:01;6.15;;;1.38;;
11962;SDS011;62678;52.130;5.584;2023-02-26T08:21:30;6.95;;;1.98;;
11962;SDS011;62678;52.130;5.584;2023-02-26T08:23:57;5.65;;;1.52;;
11962;SDS011;62678;52.130;5.584;2023-02-26T08:26:24;6.63;;;1.05;;
11962;SDS011;62678;52.130;5.584;2023-02-26T08:28:52;7.07;;;1.40;;
11962;SDS011;62678;52.130;5.584;2023-02-26T08:31:20;5.90;;;1.58;;
11962;SDS011;62678;52.130;5.584;2023-02-26T08:33:47;6.50;;;1.15;;
11962;SDS011;62678;52.130;5.584;2023-02-26T08:36:14;8.77;;;1.10;;
11962;SDS011;62678;52.130;5.584;2023-02-26T08:38:43;4.78;;;1.15;;
11962;SDS011;62678;52.130;5.584;2023-02-26T08:41:10;6.15;;;1.10;;
11962;SDS011;62678;52.130;5.584;2023-02-26T08:43:37;6.03;;;1.00;;
11962;SDS011;62678;52.130;5.584;2023-02-26T08:46:04;3.90;;;1.05;;
11962;SDS011;62678;52.130;5.584;2023-02-26T08:48:31;6.93;;;1.02;;
11962;SDS011;62678;52.130;5.584;2023-02-26T08:50:58;4.45;;;0.95;;
11962;SDS011;62678;52.130;5.584;2023-02-26T08:53:25;4.05;;;1.30;;
11962;SDS011;62678;52.130;5.584;2023-02-26T08:55:54;2.75;;;0.80;;
11962;SDS011;62678;52.130;5.584;2023-02-26T08:58:21;5.30;;;1.35;;
11962;SDS011;62678;52.130;5.584;2023-02-26T09:00:48;5.75;;;0.90;;
11962;SDS011;62678;52.130;5.584;2023-02-26T09:03:15;5.15;;;1.20;;
11962;SDS011;62678;52.130;5.584;2023-02-26T09:05:42;2.85;;;0.90;;
11962;SDS011;62678;52.130;5.584;2023-02-26T09:08:09;4.68;;;0.95;;
11962;SDS011;62678;52.130;5.584;2023-02-26T09:10:39;2.95;;;1.02;;
11962;SDS011;62678;52.130;5.584;2023-02-26T09:13:08;5.63;;;1.08;;
11962;SDS011;62678;52.130;5.584;2023-02-26T09:15:35;6.65;;;1.17;;
11962;SDS011;62678;52.130;5.584;2023-02-26T09:18:02;5.10;;;0.93;;
11962;SDS011;62678;52.130;5.584;2023-02-26T09:20:29;5.80;;;1.08;;
11962;SDS011;62678;52.130;5.584;2023-02-26T09:22:57;3.20;;;1.00;;
11962;SDS011;62678;52.130;5.584;2023-02-26T09:25:24;2.17;;;0.80;;
11962;SDS011;62678;52.130;5.584;2023-02-26T09:27:50;3.92;;;1.05;;
11962;SDS011;62678;52.130;5.584;2023-02-26T09:30:19;2.55;;;0.95;;
11962;SDS011;62678;52.130;5.584;2023-02-26T09:32:46;4.20;;;1.90;;
11962;SDS011;62678;52.130;5.584;2023-02-26T09:35:13;7.25;;;2.22;;
11962;SDS011;62678;52.130;5.584;2023-02-26T09:37:41;3.45;;;0.57;;
11962;SDS011;62678;52.130;5.584;2023-02-26T09:40:09;2.80;;;0.80;;
11962;SDS011;62678;52.130;5.584;2023-02-26T09:42:51;2.20;;;0.63;;
11962;SDS011;62678;52.130;5.584;2023-02-26T09:45:30;2.28;;;1.00;;
11962;SDS011;62678;52.130;5.584;2023-02-26T09:47:59;3.13;;;0.80;;
11962;SDS011;62678;52.130;5.584;2023-02-26T09:50:31;3.17;;;0.80;;
11962;SDS011;62678;52.130;5.584;2023-02-26T09:53:06;2.78;;;0.73;;
11962;SDS011;62678;52.130;5.584;2023-02-26T09:55:41;2.78;;;0.70;;
11962;SDS011;62678;52.130;5.584;2023-02-26T09:58:11;3.75;;;0.70;;
11962;SDS011;62678;52.130;5.584;2023-02-26T10:00:45;2.03;;;0.70;;
11962;SDS011;62678;52.130;5.584;2023-02-26T10:03:19;3.40;;;1.23;;
11962;SDS011;62678;52.130;5.584;2023-02-26T10:06:01;4.15;;;1.00;;
11962;SDS011;62678;52.130;5.584;2023-02-26T10:08:58;3.83;;;0.80;;
11962;SDS011;62678;52.130;5.584;2023-02-26T10:11:44;3.17;;;0.85;;
11962;SDS011;62678;52.130;5.584;2023-02-26T10:14:18;2.75;;;0.63;;
11962;SDS011;62678;52.130;5.584;2023-02-26T10:16:53;3.13;;;0.65;;
11962;SDS011;62678;52.130;5.584;2023-02-26T10:19:25;2.95;;;1.10;;
11962;SDS011;62678;52.130;5.584;2023-02-26T10:21:56;2.00;;;0.90;;
11962;SDS011;62678;52.130;5.584;2023-02-26T10:24:28;2.97;;;0.90;;
11962;SDS011;62678;52.130;5.584;2023-02-26T10:27:04;2.67;;;0.73;;
11962;SDS011;62678;52.130;5.584;2023-02-26T10:29:35;3.95;;;0.88;;
11962;SDS011;62678;52.130;5.584;2023-02-26T10:32:14;3.90;;;0.88;;
11962;SDS011;62678;52.130;5.584;2023-02-26T10:34:50;3.25;;;0.73;;
11962;SDS011;62678;52.130;5.584;2023-02-26T10:37:23;2.55;;;0.60;;
11962;SDS011;62678;52.130;5.584;2023-02-26T10:40:02;1.83;;;0.68;;
11962;SDS011;62678;52.130;5.584;2023-02-26T10:42:38;1.23;;;0.70;;
11962;SDS011;62678;52.130;5.584;2023-02-26T10:45:10;3.25;;;0.70;;
11962;SDS011;62678;52.130;5.584;2023-02-26T10:47:51;2.85;;;0.70;;
11962;SDS011;62678;52.130;5.584;2023-02-26T10:50:27;3.78;;;0.80;;
11962;SDS011;62678;52.130;5.584;2023-02-26T10:52:56;3.33;;;1.08;;
11962;SDS011;62678;52.130;5.584;2023-02-26T10:55:25;3.72;;;0.98;;
11962;SDS011;62678;52.130;5.584;2023-02-26T10:57:59;2.25;;;0.70;;
11962;SDS011;62678;52.130;5.584;2023-02-26T11:00:30;1.17;;;0.68;;
11962;SDS011;62678;52.130;5.584;2023-02-26T11:03:01;2.05;;;0.63;;
11962;SDS011;62678;52.130;5.584;2023-02-26T11:05:31;1.67;;;0.60;;
11962;SDS011;62678;52.130;5.584;2023-02-26T11:08:00;3.20;;;0.90;;
11962;SDS011;62678;52.130;5.584;2023-02-26T11:10:33;2.92;;;0.88;;
11962;SDS011;62678;52.130;5.584;2023-02-26T11:13:05;2.38;;;0.85;;
11962;SDS011;62678;52.130;5.584;2023-02-26T11:15:32;2.15;;;0.57;;
11962;SDS011;62678;52.130;5.584;2023-02-26T11:17:59;3.47;;;0.70;;
11962;SDS011;62678;52.130;5.584;2023-02-26T11:20:30;3.33;;;0.65;;
11962;SDS011;62678;52.130;5.584;2023-02-26T11:23:01;2.15;;;1.00;;
11962;SDS011;62678;52.130;5.584;2023-02-26T11:25:31;2.78;;;0.85;;
11962;SDS011;62678;52.130;5.584;2023-02-26T11:28:02;3.28;;;1.00;;
11962;SDS011;62678;52.130;5.584;2023-02-26T11:30:31;2.63;;;0.82;;
11962;SDS011;62678;52.130;5.584;2023-02-26T11:33:12;2.80;;;0.68;;
11962;SDS011;62678;52.130;5.584;2023-02-26T11:35:43;4.80;;;0.88;;
11962;SDS011;62678;52.130;5.584;2023-02-26T11:38:14;3.70;;;0.60;;
11962;SDS011;62678;52.130;5.584;2023-02-26T11:40:45;3.83;;;1.05;;
11962;SDS011;62678;52.130;5.584;2023-02-26T11:43:14;4.80;;;0.80;;
11962;SDS011;62678;52.130;5.584;2023-02-26T11:45:45;2.58;;;0.98;;
11962;SDS011;62678;52.130;5.584;2023-02-26T11:48:18;1.35;;;0.80;;
11962;SDS011;62678;52.130;5.584;2023-02-26T11:50:48;1.40;;;0.65;;
11962;SDS011;62678;52.130;5.584;2023-02-26T11:53:23;2.70;;;1.00;;
11962;SDS011;62678;52.130;5.584;2023-02-26T11:55:52;5.43;;;0.68;;
11962;SDS011;62678;52.130;5.584;2023-02-26T11:58:27;2.50;;;0.80;;
11962;SDS011;62678;52.130;5.584;2023-02-26T12:01:00;2.58;;;0.70;;
11962;SDS011;62678;52.130;5.584;2023-02-26T12:03:30;1.58;;;0.60;;
11962;SDS011;62678;52.130;5.584;2023-02-26T12:05:59;2.20;;;0.80;;
11962;SDS011;62678;52.130;5.584;2023-02-26T12:08:29;2.40;;;1.00;;
11962;SDS011;62678;52.130;5.584;2023-02-26T12:11:29;1.63;;;0.85;;
11962;SDS011;62678;52.130;5.584;2023-02-26T12:14:25;1.52;;;0.70;;
11962;SDS011;62678;52.130;5.584;2023-02-26T12:17:08;1.13;;;0.60;;
11962;SDS011;62678;52.130;5.584;2023-02-26T12:19:47;1.98;;;0.60;;
11962;SDS011;62678;52.130;5.584;2023-02-26T12:22:29;2.72;;;0.65;;
11962;SDS011;62678;52.130;5.584;2023-02-26T12:25:18;2.10;;;0.82;;
11962;SDS011;62678;52.130;5.584;2023-02-26T12:27:57;2.33;;;0.60;;
11962;SDS011;62678;52.130;5.584;2023-02-26T12:30:51;3.40;;;1.00;;
11962;SDS011;62678;52.130;5.584;2023-02-26T12:33:44;4.72;;;1.30;;
11962;SDS011;62678;52.130;5.584;2023-02-26T12:36:26;1.67;;;0.80;;
11962;SDS011;62678;52.130;5.584;2023-02-26T12:39:03;1.42;;;0.80;;
11962;SDS011;62678;52.130;5.584;2023-02-26T12:41:50;3.25;;;0.57;;
11962;SDS011;62678;52.130;5.584;2023-02-26T12:44:26;1.70;;;0.50;;
11962;SDS011;62678;52.130;5.584;2023-02-26T12:47:20;1.88;;;0.70;;
11962;SDS011;62678;52.130;5.584;2023-02-26T12:50:00;1.42;;;0.50;;
11962;SDS011;62678;52.130;5.584;2023-02-26T12:52:42;2.22;;;0.80;;
11962;SDS011;62678;52.130;5.584;2023-02-26T12:55:27;1.48;;;0.70;;
11962;SDS011;62678;52.130;5.584;2023-02-26T12:58:06;1.35;;;0.93;;
11962;SDS011;62678;52.130;5.584;2023-02-26T13:00:54;2.10;;;0.90;;
11962;SDS011;62678;52.130;5.584;2023-02-26T13:03:40;1.88;;;0.70;;
11962;SDS011;62678;52.130;5.584;2023-02-26T13:09:19;1.52;;;0.50;;
11962;SDS011;62678;52.130;5.584;2023-02-26T13:11:59;2.38;;;0.60;;
11962;SDS011;62678;52.130;5.584;2023-02-26T13:14:37;2.45;;;0.60;;
11962;SDS011;62678;52.130;5.584;2023-02-26T13:17:17;1.98;;;0.95;;
11962;SDS011;62678;52.130;5.584;2023-02-26T13:19:52;0.80;;;0.60;;
11962;SDS011;62678;52.130;5.584;2023-02-26T13:22:23;2.85;;;0.80;;
11962;SDS011;62678;52.130;5.584;2023-02-26T13:24:55;2.10;;;1.00;;
11962;SDS011;62678;52.130;5.584;2023-02-26T13:27:27;3.42;;;0.93;;
11962;SDS011;62678;52.130;5.584;2023-02-26T13:30:01;2.55;;;1.67;;
11962;SDS011;62678;52.130;5.584;2023-02-26T13:32:35;1.13;;;0.70;;
11962;SDS011;62678;52.130;5.584;2023-02-26T13:35:05;0.68;;;0.50;;
11962;SDS011;62678;52.130;5.584;2023-02-26T13:37:44;3.05;;;0.73;;
11962;SDS011;62678;52.130;5.584;2023-02-26T13:40:22;2.15;;;0.85;;
11962;SDS011;62678;52.130;5.584;2023-02-26T13:43:05;1.38;;;0.50;;
11962;SDS011;62678;52.130;5.584;2023-02-26T13:45:44;1.23;;;0.47;;
11962;SDS011;62678;52.130;5.584;2023-02-26T13:48:19;1.38;;;0.90;;
11962;SDS011;62678;52.130;5.584;2023-02-26T13:50:55;2.05;;;0.70;;
11962;SDS011;62678;52.130;5.584;2023-02-26T13:56:21;1.50;;;0.52;;
11962;SDS011;62678;52.130;5.584;2023-02-26T13:59:04;2.05;;;0.57;;
11962;SDS011;62678;52.130;5.584;2023-02-26T14:01:53;1.50;;;0.43;;
11962;SDS011;62678;52.130;5.584;2023-02-26T14:04:22;0.80;;;0.70;;
11962;SDS011;62678;52.130;5.584;2023-02-26T14:06:52;1.40;;;0.50;;
11962;SDS011;62678;52.130;5.584;2023-02-26T14:12:23;1.40;;;0.50;;
11962;SDS011;62678;52.130;5.584;2023-02-26T14:15:19;1.17;;;0.50;;
11962;SDS011;62678;52.130;5.584;2023-02-26T14:17:59;2.78;;;0.70;;
11962;SDS011;62678;52.130;5.584;2023-02-26T14:20:27;3.28;;;0.70;;
11962;SDS011;62678;52.130;5.584;2023-02-26T14:23:09;1.63;;;0.80;;
11962;SDS011;62678;52.130;5.584;2023-02-26T14:25:51;0.85;;;0.43;;
11962;SDS011;62678;52.130;5.584;2023-02-26T14:28:30;2.63;;;0.60;;
11962;SDS011;62678;52.130;5.584;2023-02-26T14:31:13;1.13;;;0.60;;
11962;SDS011;62678;52.130;5.584;2023-02-26T14:33:44;0.80;;;0.40;;
11962;SDS011;62678;52.130;5.584;2023-02-26T14:36:14;1.00;;;0.60;;
11962;SDS011;62678;52.130;5.584;2023-02-26T14:38:45;2.97;;;0.70;;
11962;SDS011;62678;52.130;5.584;2023-02-26T14:41:17;1.00;;;0.65;;
11962;SDS011;62678;52.130;5.584;2023-02-26T14:43:55;1.13;;;0.75;;
11962;SDS011;62678;52.130;5.584;2023-02-26T14:46:25;2.03;;;0.50;;
11962;SDS011;62678;52.130;5.584;2023-02-26T14:48:52;1.88;;;0.73;;
11962;SDS011;62678;52.130;5.584;2023-02-26T14:51:21;2.08;;;0.73;;
11962;SDS011;62678;52.130;5.584;2023-02-26T14:57:08;2.33;;;0.70;;
11962;SDS011;62678;52.130;5.584;2023-02-26T14:59:52;1.65;;;0.60;;
11962;SDS011;62678;52.130;5.584;2023-02-26T15:02:39;1.85;;;0.60;;
11962;SDS011;62678;52.130;5.584;2023-02-26T15:05:23;2.25;;;0.60;;
11962;SDS011;62678;52.130;5.584;2023-02-26T15:08:15;2.95;;;0.60;;
11962;SDS011;62678;52.130;5.584;2023-02-26T15:10:54;2.35;;;0.63;;
11962;SDS011;62678;52.130;5.584;2023-02-26T15:13:51;1.77;;;0.50;;
11962;SDS011;62678;52.130;5.584;2023-02-26T15:16:41;2.78;;;0.60;;
11962;SDS011;62678;52.130;5.584;2023-02-26T15:19:25;1.27;;;0.47;;
11962;SDS011;62678;52.130;5.584;2023-02-26T15:22:07;0.65;;;0.40;;
11962;SDS011;62678;52.130;5.584;2023-02-26T15:24:46;2.30;;;0.50;;
11962;SDS011;62678;52.130;5.584;2023-02-26T15:27:14;1.70;;;0.70;;
11962;SDS011;62678;52.130;5.584;2023-02-26T15:29:43;1.83;;;0.50;;
11962;SDS011;62678;52.130;5.584;2023-02-26T15:32:16;1.15;;;0.60;;
11962;SDS011;62678;52.130;5.584;2023-02-26T15:34:54;2.20;;;0.60;;